createdAt,value
2023-02-13T00:00:51.923Z,6.65
2023-02-13T00:03:19.028Z,6.62
2023-02-13T00:05:45.935Z,6.60
2023-02-13T00:08:12.799Z,6.58
2023-02-13T00:10:40.380Z,6.57
2023-02-13T00:13:07.161Z,6.55
2023-02-13T00:15:34.371Z,6.57
2023-02-13T00:18:02.945Z,6.54
2023-02-13T00:20:29.776Z,6.58
2023-02-13T00:22:56.586Z,6.57
2023-02-13T00:25:23.352Z,6.56
2023-02-13T00:27:52.412Z,6.55
2023-02-13T00:30:19.309Z,6.57
2023-02-13T00:32:46.574Z,6.55
2023-02-13T00:35:13.417Z,6.56
2023-02-13T00:37:40.190Z,6.54
2023-02-13T00:40:08.076Z,6.53
2023-02-13T00:42:34.880Z,6.54
2023-02-13T00:45:01.640Z,6.48
2023-02-13T00:47:28.464Z,6.52
2023-02-13T00:49:55.270Z,6.49
2023-02-13T00:52:22.066Z,6.52
2023-02-13T00:54:48.913Z,6.53
2023-02-13T00:57:15.708Z,6.54
2023-02-13T00:59:42.523Z,6.52
2023-02-13T01:02:09.330Z,6.51
2023-02-13T01:04:36.164Z,6.47
2023-02-13T01:07:02.949Z,6.45
2023-02-13T01:09:29.763Z,6.48
2023-02-13T01:11:56.569Z,6.51
2023-02-13T01:14:23.454Z,6.52
2023-02-13T01:16:50.234Z,6.48
2023-02-13T01:19:17.447Z,6.46
2023-02-13T01:21:44.767Z,6.49
2023-02-13T01:24:11.924Z,6.51
2023-02-13T01:26:39.637Z,6.51
2023-02-13T01:29:06.779Z,6.43
2023-02-13T01:31:34.165Z,6.47
2023-02-13T01:34:01.181Z,6.50
2023-02-13T01:36:28.163Z,6.48
2023-02-13T01:38:58.460Z,6.51
2023-02-13T01:41:27.363Z,6.51
2023-02-13T01:43:58.911Z,6.47
2023-02-13T01:46:37.841Z,6.48
2023-02-13T01:49:33.986Z,6.49
2023-02-13T01:52:00.853Z,6.49
2023-02-13T01:54:31.489Z,6.50
2023-02-13T01:57:22.510Z,6.47
2023-02-13T02:00:08.120Z,6.51
2023-02-13T02:02:40.746Z,6.47
2023-02-13T02:05:09.322Z,6.47
2023-02-13T02:07:38.357Z,6.48
2023-02-13T02:10:10.716Z,6.45
2023-02-13T02:13:07.160Z,6.46
2023-02-13T02:15:34.202Z,6.42
2023-02-13T02:18:01.022Z,6.44
2023-02-13T02:21:09.984Z,6.39
2023-02-13T02:24:27.667Z,6.38
2023-02-13T02:27:25.976Z,6.39
2023-02-13T02:30:17.303Z,6.42
2023-02-13T02:33:26.731Z,6.41
2023-02-13T02:36:12.479Z,6.41
2023-02-13T02:39:04.093Z,6.43
2023-02-13T02:42:23.566Z,6.28
2023-02-13T02:45:39.409Z,6.41
2023-02-13T02:48:36.948Z,6.43
2023-02-13T02:51:29.764Z,6.39
2023-02-13T02:54:41.663Z,6.38
2023-02-13T02:57:16.647Z,6.38
2023-02-13T03:00:02.840Z,6.34
2023-02-13T03:02:51.562Z,6.41
2023-02-13T03:05:50.931Z,6.35
2023-02-13T03:08:41.374Z,6.36
2023-02-13T03:11:28.149Z,6.40
2023-02-13T03:13:56.049Z,6.42
2023-02-13T03:16:44.403Z,6.42
2023-02-13T03:20:05.781Z,6.43
2023-02-13T03:22:57.650Z,6.36
2023-02-13T03:25:41.662Z,6.38
2023-02-13T03:29:26.335Z,6.35
2023-02-13T03:32:16.146Z,6.35
2023-02-13T03:35:18.480Z,6.40
2023-02-13T03:37:56.768Z,6.39
2023-02-13T03:41:05.343Z,6.41
2023-02-13T03:43:59.243Z,6.41
2023-02-13T03:46:31.313Z,6.40
2023-02-13T03:49:18.867Z,6.39
2023-02-13T03:51:51.811Z,6.42
2023-02-13T03:54:44.041Z,6.33
2023-02-13T03:57:37.496Z,6.37
2023-02-13T04:00:11.905Z,6.37
2023-02-13T04:02:50.341Z,6.40
2023-02-13T04:05:24.845Z,6.40
2023-02-13T04:07:51.781Z,6.40
2023-02-13T04:10:20.540Z,6.38
2023-02-13T04:13:15.373Z,6.43
2023-02-13T04:16:06.692Z,6.41
2023-02-13T04:18:34.877Z,6.45
2023-02-13T04:21:05.211Z,6.44
2023-02-13T04:23:32.179Z,6.44
2023-02-13T04:26:03.277Z,6.42
2023-02-13T04:28:30.369Z,6.44
2023-02-13T04:30:58.857Z,6.42
2023-02-13T04:33:26.014Z,6.46
2023-02-13T04:35:53.142Z,6.46
2023-02-13T04:38:19.901Z,6.47
2023-02-13T04:40:46.690Z,6.42
2023-02-13T04:43:13.611Z,6.42
2023-02-13T04:45:40.481Z,6.38
2023-02-13T04:48:07.335Z,6.45
2023-02-13T04:50:34.109Z,6.43
2023-02-13T04:53:00.899Z,6.45
2023-02-13T04:55:28.613Z,6.46
2023-02-13T04:57:56.381Z,6.41
2023-02-13T05:00:25.993Z,6.43
2023-02-13T05:02:54.070Z,6.43
2023-02-13T05:05:21.633Z,6.45
2023-02-13T05:07:48.509Z,6.46
2023-02-13T05:10:15.383Z,6.42
2023-02-13T05:12:42.175Z,6.38
2023-02-13T05:15:09.784Z,6.44
2023-02-13T05:17:36.580Z,6.43
2023-02-13T05:20:03.868Z,6.43
2023-02-13T05:22:49.291Z,6.43
2023-02-13T05:25:16.274Z,6.36
2023-02-13T05:27:43.020Z,6.40
2023-02-13T05:30:10.701Z,6.37
2023-02-13T05:32:37.815Z,6.40
2023-02-13T05:35:06.027Z,6.42
2023-02-13T05:37:32.923Z,6.38
2023-02-13T05:39:59.871Z,6.38
2023-02-13T05:42:26.870Z,6.42
2023-02-13T05:44:53.641Z,6.42
2023-02-13T05:47:20.456Z,6.41
2023-02-13T05:49:47.225Z,6.34
2023-02-13T05:52:13.999Z,6.41
2023-02-13T05:54:41.215Z,6.39
2023-02-13T05:57:08.150Z,6.40
2023-02-13T05:59:34.934Z,6.35
2023-02-13T06:02:01.764Z,6.38
2023-02-13T06:04:30.454Z,6.39
2023-02-13T06:06:57.615Z,6.40
2023-02-13T06:09:24.452Z,6.38
2023-02-13T06:11:51.288Z,6.38
2023-02-13T06:14:18.077Z,6.38
2023-02-13T06:16:44.899Z,6.36
2023-02-13T06:19:11.672Z,6.38
2023-02-13T06:21:39.076Z,6.39
2023-02-13T06:24:09.711Z,6.34
2023-02-13T06:26:36.560Z,6.34
2023-02-13T06:29:05.107Z,6.37
2023-02-13T06:31:32.544Z,6.33
2023-02-13T06:33:59.409Z,6.28
2023-02-13T06:36:26.228Z,6.35
2023-02-13T06:38:53.040Z,6.32
2023-02-13T06:41:20.352Z,6.25
2023-02-13T06:43:47.180Z,6.30
2023-02-13T06:46:13.995Z,6.29
2023-02-13T06:48:40.840Z,6.25
2023-02-13T06:51:07.717Z,6.27
2023-02-13T06:53:34.526Z,6.28
2023-02-13T06:56:06.643Z,6.27
2023-02-13T06:58:34.421Z,6.24
2023-02-13T07:01:01.337Z,6.26
2023-02-13T07:03:28.526Z,6.26
2023-02-13T07:05:55.410Z,6.27
2023-02-13T07:08:22.662Z,6.21
2023-02-13T07:10:49.954Z,6.24
2023-02-13T07:13:16.858Z,6.26
2023-02-13T07:15:43.783Z,6.25
2023-02-13T07:18:10.824Z,6.28
2023-02-13T07:20:37.685Z,6.26
2023-02-13T07:23:07.041Z,6.25
2023-02-13T07:25:34.288Z,6.26
2023-02-13T07:28:03.660Z,6.22
2023-02-13T07:30:32.479Z,6.23
2023-02-13T07:33:01.720Z,6.23
2023-02-13T07:35:28.735Z,6.22
2023-02-13T07:37:56.203Z,6.23
2023-02-13T07:40:23.378Z,6.23
2023-02-13T07:42:50.190Z,6.27
2023-02-13T07:45:17.129Z,6.23
2023-02-13T07:47:44.357Z,6.20
2023-02-13T07:50:12.639Z,6.22
2023-02-13T07:52:39.541Z,6.21
2023-02-13T07:55:06.983Z,6.20
2023-02-13T07:57:34.623Z,6.21
2023-02-13T08:00:01.919Z,6.25
2023-02-13T08:02:28.854Z,6.25
2023-02-13T08:04:56.043Z,6.20
2023-02-13T08:07:22.895Z,6.18
2023-02-13T08:10:08.344Z,6.19
2023-02-13T08:12:36.728Z,6.22
2023-02-13T08:15:04.679Z,6.22
2023-02-13T08:17:31.611Z,6.23
2023-02-13T08:19:58.561Z,6.23
2023-02-13T08:22:25.781Z,6.21
2023-02-13T08:24:52.927Z,6.21
2023-02-13T08:27:20.347Z,6.26
2023-02-13T08:29:49.448Z,6.22
2023-02-13T08:32:16.581Z,6.23
2023-02-13T08:34:43.488Z,6.27
2023-02-13T08:37:10.288Z,6.32
2023-02-13T08:39:37.262Z,6.32
2023-02-13T08:42:04.208Z,6.26
2023-02-13T08:44:31.055Z,6.31
2023-02-13T08:46:58.044Z,6.35
2023-02-13T08:49:25.050Z,6.39
2023-02-13T08:51:51.820Z,6.41
2023-02-13T08:54:18.791Z,6.46
2023-02-13T08:56:45.790Z,6.48
2023-02-13T08:59:12.562Z,6.48
2023-02-13T09:01:39.526Z,6.53
2023-02-13T09:04:06.429Z,6.54
2023-02-13T09:06:33.660Z,6.58
2023-02-13T09:09:00.445Z,6.60
2023-02-13T09:11:27.265Z,6.62
2023-02-13T09:13:54.453Z,6.68
2023-02-13T09:16:21.830Z,6.66
2023-02-13T09:18:50.221Z,6.66
2023-02-13T09:21:18.406Z,6.71
2023-02-13T09:23:46.067Z,6.66
2023-02-13T09:26:16.452Z,6.74
2023-02-13T09:28:43.949Z,6.86
2023-02-13T09:31:17.733Z,6.93
2023-02-13T09:33:46.391Z,6.99
2023-02-13T09:36:16.620Z,7.10
2023-02-13T09:38:44.384Z,7.18
2023-02-13T09:41:21.566Z,7.18
2023-02-13T09:43:52.874Z,7.18
2023-02-13T09:46:40.670Z,7.18
2023-02-13T09:49:17.510Z,7.18
2023-02-13T09:51:47.455Z,7.18
2023-02-13T09:54:19.208Z,7.26
2023-02-13T09:57:00.617Z,7.25
2023-02-13T09:59:41.170Z,7.26
2023-02-13T10:02:38.774Z,7.26
2023-02-13T10:05:26.952Z,7.30
2023-02-13T10:08:08.500Z,7.26
2023-02-13T10:10:50.534Z,7.25
2023-02-13T10:13:48.455Z,7.27
2023-02-13T10:16:29.440Z,7.27
2023-02-13T10:19:06.867Z,7.36
2023-02-13T10:21:42.908Z,7.42
2023-02-13T10:24:40.427Z,7.49
2023-02-13T10:27:34.946Z,7.50
2023-02-13T10:30:26.526Z,7.60
2023-02-13T10:33:20.872Z,7.65
2023-02-13T10:36:03.857Z,7.71
2023-02-13T10:38:36.003Z,7.73
2023-02-13T10:41:36.278Z,7.74
2023-02-13T10:44:42.735Z,7.80
2023-02-13T10:47:24.456Z,7.88
2023-02-13T10:50:40.145Z,7.91
2023-02-13T10:53:24.991Z,7.96
2023-02-13T10:56:03.761Z,7.99
2023-02-13T10:59:15.949Z,8.06
2023-02-13T11:02:02.729Z,8.09
2023-02-13T11:04:30.308Z,8.05
2023-02-13T11:07:04.399Z,7.98
2023-02-13T11:09:39.002Z,7.90
2023-02-13T11:12:31.918Z,7.81
2023-02-13T11:15:08.864Z,7.78
2023-02-13T11:17:40.370Z,7.78
2023-02-13T11:20:27.810Z,7.80
2023-02-13T11:22:56.100Z,7.83
2023-02-13T11:25:32.025Z,7.78
2023-02-13T11:28:17.985Z,7.84
2023-02-13T11:30:44.988Z,7.84
2023-02-13T11:33:17.756Z,7.84
2023-02-13T11:35:46.231Z,7.92
2023-02-13T11:38:15.976Z,7.97
2023-02-13T11:40:47.944Z,8.00
2023-02-13T11:43:29.325Z,7.99
2023-02-13T11:46:22.349Z,8.06
2023-02-13T11:49:07.925Z,8.10
2023-02-13T11:51:47.373Z,8.15
2023-02-13T11:55:00.265Z,8.15
2023-02-13T11:57:34.196Z,8.19
2023-02-13T12:00:28.933Z,8.21
2023-02-13T12:02:55.836Z,8.21
2023-02-13T12:05:28.453Z,8.15
2023-02-13T12:08:02.180Z,8.22
2023-02-13T12:10:33.835Z,8.23
2023-02-13T12:13:13.988Z,8.22
2023-02-13T12:15:41.848Z,8.23
2023-02-13T12:18:40.159Z,8.23
2023-02-13T12:21:56.256Z,8.24
2023-02-13T12:24:44.249Z,8.26
2023-02-13T12:27:26.267Z,8.29
2023-02-13T12:30:14.976Z,8.31
2023-02-13T12:33:16.787Z,8.30
2023-02-13T12:35:55.452Z,8.32
2023-02-13T12:38:51.516Z,8.35
2023-02-13T12:41:44.489Z,8.34
2023-02-13T12:44:52.858Z,8.38
2023-02-13T12:47:31.818Z,8.38
2023-02-13T12:50:39.811Z,8.39
2023-02-13T12:53:24.862Z,8.34
2023-02-13T12:56:09.057Z,8.39
2023-02-13T12:58:51.375Z,8.40
2023-02-13T13:01:46.542Z,8.40
2023-02-13T13:04:50.949Z,8.45
2023-02-13T13:08:04.557Z,8.44
2023-02-13T13:11:11.042Z,8.51
2023-02-13T13:13:54.936Z,8.52
2023-02-13T13:17:29.576Z,8.53
2023-02-13T13:20:14.483Z,8.58
2023-02-13T13:22:53.979Z,8.63
2023-02-13T13:25:30.984Z,8.63
2023-02-13T13:28:27.812Z,8.67
2023-02-13T13:30:55.727Z,8.69
2023-02-13T13:33:26.388Z,8.67
2023-02-13T13:36:18.830Z,8.67
2023-02-13T13:39:22.892Z,8.67
2023-02-13T13:42:11.925Z,8.70
2023-02-13T13:44:50.443Z,8.74
2023-02-13T13:47:35.412Z,8.71
2023-02-13T13:50:06.220Z,8.73
2023-02-13T13:52:40.342Z,8.76
2023-02-13T13:55:48.853Z,8.75
2023-02-13T13:58:44.124Z,8.72
2023-02-13T14:01:31.184Z,8.70
2023-02-13T14:04:32.879Z,8.70
2023-02-13T14:06:59.607Z,8.71
2023-02-13T14:09:43.852Z,8.70
2023-02-13T14:12:50.349Z,8.71
2023-02-13T14:15:39.018Z,8.71
2023-02-13T14:18:08.246Z,8.70
2023-02-13T14:20:43.090Z,8.74
2023-02-13T14:23:53.513Z,8.74
2023-02-13T14:26:32.090Z,8.80
2023-02-13T14:29:16.839Z,8.80
2023-02-13T14:32:01.223Z,8.81
2023-02-13T14:34:38.664Z,8.84
2023-02-13T14:37:13.141Z,8.83
2023-02-13T14:39:42.365Z,8.85
2023-02-13T14:42:30.283Z,8.86
2023-02-13T14:45:00.652Z,8.87
2023-02-13T14:47:32.847Z,8.88
2023-02-13T14:50:03.892Z,8.91
2023-02-13T14:52:40.329Z,8.89
2023-02-13T14:55:45.881Z,8.91
2023-02-13T14:58:28.214Z,8.95
2023-02-13T15:01:06.149Z,8.96
2023-02-13T15:03:38.319Z,8.96
2023-02-13T15:06:14.905Z,8.94
2023-02-13T15:08:49.696Z,8.92
2023-02-13T15:11:43.171Z,8.92
2023-02-13T15:14:35.643Z,8.91
2023-02-13T15:17:24.174Z,8.86
2023-02-13T15:20:05.122Z,8.89
2023-02-13T15:22:36.374Z,8.85
2023-02-13T15:25:04.493Z,8.81
2023-02-13T15:27:39.205Z,8.80
2023-02-13T15:30:22.525Z,8.74
2023-02-13T15:32:59.726Z,8.70
2023-02-13T15:35:38.935Z,8.67
2023-02-13T15:38:39.273Z,8.61
2023-02-13T15:41:24.409Z,8.61
2023-02-13T15:43:56.600Z,8.60
2023-02-13T15:46:33.927Z,8.55
2023-02-13T15:49:07.402Z,8.56
2023-02-13T15:51:35.292Z,8.53
2023-02-13T15:54:07.326Z,8.53
2023-02-13T15:56:35.229Z,8.47
2023-02-13T15:59:03.889Z,8.45
2023-02-13T16:01:32.311Z,8.44
2023-02-13T16:04:06.817Z,8.39
2023-02-13T16:06:35.078Z,8.38
2023-02-13T16:09:04.586Z,8.36
2023-02-13T16:11:44.799Z,8.30
2023-02-13T16:14:21.742Z,8.31
2023-02-13T16:17:18.057Z,8.27
2023-02-13T16:19:50.889Z,8.22
2023-02-13T16:22:38.142Z,8.16
2023-02-13T16:25:16.767Z,8.13
2023-02-13T16:28:18.781Z,8.09
2023-02-13T16:30:51.580Z,8.03
2023-02-13T16:33:36.361Z,7.97
2023-02-13T16:36:09.443Z,7.90
2023-02-13T16:38:46.487Z,7.84
2023-02-13T16:41:19.376Z,7.78
2023-02-13T16:43:53.967Z,7.73
2023-02-13T16:46:26.949Z,7.66
2023-02-13T16:48:56.893Z,7.62
2023-02-13T16:51:42.825Z,7.56
2023-02-13T16:54:12.432Z,7.51
2023-02-13T16:56:49.933Z,7.47
2023-02-13T16:59:42.064Z,7.41
2023-02-13T17:02:12.970Z,7.35
2023-02-13T17:04:39.949Z,7.31
2023-02-13T17:07:14.048Z,7.25
2023-02-13T17:09:40.982Z,7.19
2023-02-13T17:12:18.254Z,7.10
2023-02-13T17:14:45.450Z,7.05
2023-02-13T17:17:15.957Z,6.97
2023-02-13T17:19:43.052Z,6.92
2023-02-13T17:22:40.170Z,6.82
2023-02-13T17:25:17.758Z,6.76
2023-02-13T17:27:45.285Z,6.72
2023-02-13T17:30:24.951Z,6.68
2023-02-13T17:32:59.569Z,6.62
2023-02-13T17:35:26.787Z,6.59
2023-02-13T17:37:54.024Z,6.56
2023-02-13T17:40:29.889Z,6.52
2023-02-13T17:42:58.571Z,6.48
2023-02-13T17:45:29.043Z,6.43
2023-02-13T17:47:57.964Z,6.39
2023-02-13T17:50:27.594Z,6.36
2023-02-13T17:52:55.076Z,6.29
2023-02-13T17:55:29.140Z,6.23
2023-02-13T17:57:57.818Z,6.19
2023-02-13T18:00:29.280Z,6.13
2023-02-13T18:02:59.501Z,6.06
2023-02-13T18:05:28.698Z,6.00
2023-02-13T18:07:56.096Z,5.96
2023-02-13T18:10:29.331Z,5.91
2023-02-13T18:13:04.069Z,5.83
2023-02-13T18:15:40.267Z,5.79
2023-02-13T18:18:07.914Z,5.74
2023-02-13T18:20:35.011Z,5.70
2023-02-13T18:23:02.036Z,5.68
2023-02-13T18:25:29.829Z,5.64
2023-02-13T18:27:56.642Z,5.60
2023-02-13T18:30:23.799Z,5.58
2023-02-13T18:32:56.162Z,5.55
2023-02-13T18:35:23.458Z,5.51
2023-02-13T18:37:51.230Z,5.44
2023-02-13T18:40:18.519Z,5.41
2023-02-13T18:42:45.436Z,5.38
2023-02-13T18:45:12.676Z,5.33
2023-02-13T18:47:39.531Z,5.29
2023-02-13T18:50:07.677Z,5.22
2023-02-13T18:52:35.327Z,5.19
2023-02-13T18:55:02.743Z,5.14
2023-02-13T18:57:29.672Z,5.06
2023-02-13T18:59:56.603Z,5.04
2023-02-13T19:02:23.800Z,4.99
2023-02-13T19:04:50.829Z,4.96
2023-02-13T19:07:17.628Z,4.92
2023-02-13T19:09:44.663Z,4.91
2023-02-13T19:12:11.738Z,4.88
2023-02-13T19:14:39.865Z,4.88
2023-02-13T19:17:08.658Z,4.85
2023-02-13T19:19:35.544Z,4.85
2023-02-13T19:22:03.521Z,4.80
2023-02-13T19:24:30.616Z,4.77
2023-02-13T19:26:57.391Z,4.76
2023-02-13T19:29:24.313Z,4.73
2023-02-13T19:31:51.117Z,4.72
2023-02-13T19:34:18.242Z,4.71
2023-02-13T19:36:45.035Z,4.68
2023-02-13T19:39:12.032Z,4.68
2023-02-13T19:41:41.069Z,4.66
2023-02-13T19:44:09.347Z,4.64
2023-02-13T19:46:38.254Z,4.62
2023-02-13T19:49:06.308Z,4.60
2023-02-13T19:51:35.070Z,4.56
2023-02-13T19:54:05.895Z,4.54
2023-02-13T19:56:36.227Z,4.51
2023-02-13T19:59:04.349Z,4.45
2023-02-13T20:01:31.233Z,4.44
2023-02-13T20:03:58.585Z,4.41
2023-02-13T20:06:35.829Z,4.36
2023-02-13T20:09:10.441Z,4.38
2023-02-13T20:11:37.408Z,4.39
2023-02-13T20:14:05.909Z,4.40
2023-02-13T20:16:35.576Z,4.41
2023-02-13T20:19:07.160Z,4.42
2023-02-13T20:21:35.408Z,4.44
2023-02-13T20:24:03.306Z,4.45
2023-02-13T20:26:30.441Z,4.47
2023-02-13T20:28:59.611Z,4.45
2023-02-13T20:31:31.234Z,4.48
2023-02-13T20:33:58.672Z,4.48
2023-02-13T20:36:29.268Z,4.47
2023-02-13T20:38:59.798Z,4.43
2023-02-13T20:41:30.435Z,4.41
2023-02-13T20:44:04.645Z,4.39
2023-02-13T20:46:38.208Z,4.36
2023-02-13T20:49:05.791Z,4.34
2023-02-13T20:51:32.764Z,4.34
2023-02-13T20:54:00.486Z,4.32
2023-02-13T20:56:28.564Z,4.31
2023-02-13T20:59:00.635Z,4.30
2023-02-13T21:01:35.506Z,4.29
2023-02-13T21:04:04.052Z,4.30
2023-02-13T21:06:37.142Z,4.29
2023-02-13T21:09:08.215Z,4.31
2023-02-13T21:11:39.043Z,4.30
2023-02-13T21:14:07.148Z,4.29
2023-02-13T21:16:39.941Z,4.30
2023-02-13T21:19:17.858Z,4.29
2023-02-13T21:21:47.399Z,4.27
2023-02-13T21:24:24.540Z,4.23
2023-02-13T21:26:57.976Z,4.23
2023-02-13T21:29:25.969Z,4.19
2023-02-13T21:31:53.574Z,4.15
2023-02-13T21:34:22.922Z,4.16
2023-02-13T21:36:49.939Z,4.14
2023-02-13T21:39:16.957Z,4.13
2023-02-13T21:41:45.472Z,4.10
2023-02-13T21:44:17.025Z,4.09
2023-02-13T21:46:45.533Z,4.06
2023-02-13T21:49:16.560Z,4.06
2023-02-13T21:51:43.915Z,4.05
2023-02-13T21:54:11.777Z,4.04
2023-02-13T21:56:40.767Z,4.05
2023-02-13T21:59:08.304Z,4.03
2023-02-13T22:01:38.751Z,4.00
2023-02-13T22:04:08.752Z,3.95
2023-02-13T22:06:39.177Z,3.93
2023-02-13T22:09:10.294Z,3.89
2023-02-13T22:11:38.511Z,3.83
2023-02-13T22:14:08.629Z,3.77
2023-02-13T22:16:38.831Z,3.76
2023-02-13T22:19:07.432Z,3.74
2023-02-13T22:21:35.705Z,3.71
2023-02-13T22:24:03.491Z,3.68
2023-02-13T22:26:39.366Z,3.66
2023-02-13T22:29:11.513Z,3.66
2023-02-13T22:31:39.185Z,3.66
2023-02-13T22:34:07.077Z,3.65
2023-02-13T22:36:39.202Z,3.63
2023-02-13T22:39:08.267Z,3.60
2023-02-13T22:41:35.162Z,3.55
2023-02-13T22:44:01.979Z,3.51
2023-02-13T22:46:31.843Z,3.45
2023-02-13T22:48:59.783Z,3.40
2023-02-13T22:51:31.864Z,3.36
2023-02-13T22:54:00.099Z,3.31
2023-02-13T22:56:29.729Z,3.27
2023-02-13T22:58:57.280Z,3.23
2023-02-13T23:01:27.060Z,3.17
2023-02-13T23:03:55.213Z,3.14
2023-02-13T23:06:22.590Z,3.09
2023-02-13T23:08:52.889Z,3.06
2023-02-13T23:11:41.670Z,3.04
2023-02-13T23:14:10.180Z,3.00
2023-02-13T23:16:58.853Z,2.97
2023-02-13T23:19:27.687Z,2.96
2023-02-13T23:21:54.593Z,2.95
2023-02-13T23:24:21.714Z,2.92
2023-02-13T23:26:48.548Z,2.91
2023-02-13T23:29:15.389Z,2.89
2023-02-13T23:31:42.362Z,2.88
2023-02-13T23:34:09.685Z,2.86
2023-02-13T23:36:36.669Z,2.83
2023-02-13T23:39:03.596Z,2.83
2023-02-13T23:41:31.102Z,2.81
2023-02-13T23:43:57.882Z,2.78
2023-02-13T23:46:24.742Z,2.77
2023-02-13T23:48:51.630Z,2.74
2023-02-13T23:51:18.666Z,2.71
2023-02-13T23:53:45.822Z,2.68
2023-02-13T23:56:12.605Z,2.66
2023-02-13T23:58:39.373Z,2.63
